Time;durP1;ratioP1;P1;durP2;ratioP2;P2;SDS_P1;SDS_P2;PMS_P1;PMS_P2;Temp;Humidity;BMP_temperature;BMP_pressure;BME280_temperature;BME280_humidity;BME280_pressure;Samples;Min_cycle;Max_cycle;Signal;HPM_P1;HPM_P2
2023/04/25 00:00:33;;;;;;;2.63;1.50;;;;;;;;;;5052226;28;20420;-85
2023/04/25 00:02:59;;;;;;;1.67;1.33;;;;;;;;;;5069210;22;20529;-81
2023/04/25 00:05:26;;;;;;;2.55;1.42;;;;;;;;;;5057021;28;20882;-81
2023/04/25 00:07:52;;;;;;;2.22;1.30;;;;;;;;;;5052170;28;20379;-82
2023/04/25 00:10:19;;;;;;;1.77;1.27;;;;;;;;;;5061393;28;20768;-82
2023/04/25 00:12:45;;;;;;;2.08;1.30;;;;;;;;;;5072699;28;20370;-82
2023/04/25 00:15:12;;;;;;;1.70;1.00;;;;;;;;;;5082595;28;20380;-82
2023/04/25 00:17:40;;;;;;;1.15;1.02;;;;;;;;;;5086237;28;20378;-82
2023/04/25 00:20:10;;;;;;;1.98;1.27;;;;;;;;;;5083959;28;20395;-81
2023/04/25 00:22:39;;;;;;;1.60;1.10;;;;;;;;;;5081756;28;20441;-82
2023/04/25 00:25:06;;;;;;;1.40;1.10;;;;;;;;;;5081275;28;20402;-82
2023/04/25 00:27:32;;;;;;;1.38;0.88;;;;;;;;;;5083590;28;20737;-82
2023/04/25 00:29:58;;;;;;;1.13;0.90;;;;;;;;;;5086734;28;20370;-82
2023/04/25 00:32:24;;;;;;;1.30;0.95;;;;;;;;;;5081385;28;20375;-82
2023/04/25 00:34:50;;;;;;;1.38;1.10;;;;;;;;;;5087275;28;20370;-82
2023/04/25 00:37:18;;;;;;;1.52;1.17;;;;;;;;;;5082356;28;20402;-82
2023/04/25 00:39:44;;;;;;;1.45;0.95;;;;;;;;;;5085780;28;20382;-82
2023/04/25 00:42:10;;;;;;;1.70;1.02;;;;;;;;;;5083983;28;20376;-82
2023/04/25 00:44:37;;;;;;;2.15;1.17;;;;;;;;;;5083167;28;20385;-81
2023/04/25 00:47:03;;;;;;;2.43;1.30;;;;;;;;;;5079424;28;20439;-82
2023/04/25 00:49:29;;;;;;;1.90;1.40;;;;;;;;;;5092828;28;20416;-82
2023/04/25 00:51:55;;;;;;;2.08;1.40;;;;;;;;;;5089500;28;20440;-81
2023/04/25 00:54:21;;;;;;;3.40;1.67;;;;;;;;;;5073073;28;20441;-82
2023/04/25 00:56:47;;;;;;;2.03;1.60;;;;;;;;;;5093282;28;20453;-82
2023/04/25 00:59:14;;;;;;;2.33;1.45;;;;;;;;;;5080879;28;20474;-81
2023/04/25 01:01:40;;;;;;;2.97;2.08;;;;;;;;;;5076987;28;20386;-81
2023/04/25 01:04:06;;;;;;;2.90;2.03;;;;;;;;;;5092470;28;20456;-81
2023/04/25 01:06:32;;;;;;;3.13;1.80;;;;;;;;;;5065873;28;20443;-81
2023/04/25 01:08:59;;;;;;;2.80;1.90;;;;;;;;;;5080943;28;20398;-81
2023/04/25 01:11:25;;;;;;;3.00;1.80;;;;;;;;;;5078354;28;20430;-81
2023/04/25 01:13:51;;;;;;;2.13;1.70;;;;;;;;;;5078598;28;20374;-81
2023/04/25 01:16:17;;;;;;;4.28;2.15;;;;;;;;;;5080285;28;20376;-81
2023/04/25 01:18:44;;;;;;;3.88;1.98;;;;;;;;;;5054355;28;20399;-81
2023/04/25 01:21:11;;;;;;;3.65;2.10;;;;;;;;;;5082485;28;20378;-81
2023/04/25 01:23:38;;;;;;;2.50;1.80;;;;;;;;;;5092547;28;20382;-81
2023/04/25 01:26:04;;;;;;;2.95;1.80;;;;;;;;;;5084082;28;20406;-81
2023/04/25 01:28:31;;;;;;;3.80;2.08;;;;;;;;;;5072202;28;20437;-82
2023/04/25 01:30:57;;;;;;;2.33;1.95;;;;;;;;;;5072337;28;20391;-81
2023/04/25 01:33:23;;;;;;;2.75;2.00;;;;;;;;;;5072127;28;20463;-81
2023/04/25 01:35:49;;;;;;;4.20;2.20;;;;;;;;;;5072054;28;20485;-82
2023/04/25 01:38:15;;;;;;;3.70;2.42;;;;;;;;;;5072096;28;20379;-82
2023/04/25 01:40:41;;;;;;;3.85;2.30;;;;;;;;;;5071868;28;20470;-82
2023/04/25 01:43:10;;;;;;;2.83;2.33;;;;;;;;;;5071992;28;20379;-82
2023/04/25 01:45:39;;;;;;;4.13;2.22;;;;;;;;;;5071711;28;20412;-82
2023/04/25 01:48:06;;;;;;;2.38;2.10;;;;;;;;;;5071853;28;20379;-81
2023/04/25 01:50:32;;;;;;;4.13;2.33;;;;;;;;;;5071901;28;20403;-82
2023/04/25 01:52:58;;;;;;;3.28;2.40;;;;;;;;;;5081294;28;20388;-82
2023/04/25 01:55:24;;;;;;;3.53;2.28;;;;;;;;;;5083695;28;20782;-82
2023/04/25 01:57:50;;;;;;;3.42;2.42;;;;;;;;;;5079595;28;20388;-81
2023/04/25 02:00:16;;;;;;;5.30;2.55;;;;;;;;;;5071713;28;20749;-82
2023/04/25 02:02:42;;;;;;;2.40;1.98;;;;;;;;;;5071106;28;20396;-82
2023/04/25 02:05:08;;;;;;;2.78;2.25;;;;;;;;;;5071499;28;20407;-82
2023/04/25 02:07:34;;;;;;;3.47;2.45;;;;;;;;;;5071824;28;20734;-82
2023/04/25 02:10:00;;;;;;;3.88;2.22;;;;;;;;;;5071413;28;20368;-82
2023/04/25 02:12:27;;;;;;;4.45;2.47;;;;;;;;;;5071437;28;20380;-81
2023/04/25 02:14:54;;;;;;;3.10;2.53;;;;;;;;;;5070998;28;20402;-81
2023/04/25 02:17:21;;;;;;;3.80;2.40;;;;;;;;;;5077838;28;20366;-82
2023/04/25 02:19:47;;;;;;;3.70;2.42;;;;;;;;;;5075734;28;20368;-81
2023/04/25 02:22:13;;;;;;;2.85;2.55;;;;;;;;;;5071262;28;20371;-81
2023/04/25 02:24:39;;;;;;;3.40;2.53;;;;;;;;;;5085494;28;20713;-82
2023/04/25 02:27:05;;;;;;;3.70;2.28;;;;;;;;;;5071280;28;20952;-82
2023/04/25 02:29:31;;;;;;;2.90;2.13;;;;;;;;;;5071278;28;20376;-81
2023/04/25 02:31:57;;;;;;;2.88;2.40;;;;;;;;;;5071054;28;20437;-81
2023/04/25 02:34:23;;;;;;;4.45;2.30;;;;;;;;;;5053432;28;20383;-81
2023/04/25 02:36:52;;;;;;;3.45;2.20;;;;;;;;;;5070803;28;20891;-82
2023/04/25 02:39:18;;;;;;;3.55;2.28;;;;;;;;;;5073833;28;20380;-82
2023/04/25 02:41:44;;;;;;;4.03;2.20;;;;;;;;;;5075038;28;20939;-82
2023/04/25 02:44:10;;;;;;;3.47;2.28;;;;;;;;;;5072244;28;20383;-82
2023/04/25 02:46:36;;;;;;;2.42;2.10;;;;;;;;;;5055328;28;20411;-82
2023/04/25 02:49:02;;;;;;;5.03;2.40;;;;;;;;;;5074303;28;20418;-81
2023/04/25 02:51:28;;;;;;;2.97;2.08;;;;;;;;;;5074032;28;20820;-81
2023/04/25 02:53:54;;;;;;;3.08;2.28;;;;;;;;;;5076808;28;20378;-81
2023/04/25 02:56:20;;;;;;;3.97;2.30;;;;;;;;;;5085101;28;20387;-82
2023/04/25 02:58:46;;;;;;;4.65;2.70;;;;;;;;;;5071018;28;20436;-81
2023/04/25 03:01:12;;;;;;;3.85;2.58;;;;;;;;;;5070758;28;20413;-82
2023/04/25 03:03:38;;;;;;;4.13;2.30;;;;;;;;;;5068136;28;20415;-82
2023/04/25 03:06:04;;;;;;;4.28;2.50;;;;;;;;;;5053533;28;20400;-82
2023/04/25 03:08:32;;;;;;;3.47;2.63;;;;;;;;;;5086363;28;20376;-81
2023/04/25 03:10:58;;;;;;;5.07;2.80;;;;;;;;;;5073039;28;20658;-81
2023/04/25 03:13:24;;;;;;;3.83;2.88;;;;;;;;;;5072873;28;20922;-81
2023/04/25 03:15:50;;;;;;;4.28;2.80;;;;;;;;;;5073017;28;20387;-81
2023/04/25 03:18:16;;;;;;;6.75;4.50;;;;;;;;;;5072829;28;20418;-81
2023/04/25 03:20:42;;;;;;;7.15;4.22;;;;;;;;;;5072868;28;20769;-81
2023/04/25 03:23:08;;;;;;;5.03;3.30;;;;;;;;;;5072308;28;20463;-81
2023/04/25 03:25:34;;;;;;;4.55;3.05;;;;;;;;;;5081685;28;20489;-81
2023/04/25 03:28:00;;;;;;;3.00;2.70;;;;;;;;;;5081517;28;20375;-80
2023/04/25 03:30:26;;;;;;;3.47;2.67;;;;;;;;;;5074427;28;20394;-80
2023/04/25 03:32:52;;;;;;;2.78;2.30;;;;;;;;;;5074504;28;20383;-81
2023/04/25 03:35:18;;;;;;;2.60;2.10;;;;;;;;;;5074338;28;20375;-81
2023/04/25 03:37:45;;;;;;;4.95;2.20;;;;;;;;;;5074459;28;20430;-81
2023/04/25 03:40:11;;;;;;;3.78;2.75;;;;;;;;;;5074246;28;20428;-81
2023/04/25 03:42:37;;;;;;;3.20;2.40;;;;;;;;;;5074290;28;21054;-83
2023/04/25 03:45:03;;;;;;;3.60;2.75;;;;;;;;;;5074223;28;20392;-81
2023/04/25 03:47:29;;;;;;;3.08;2.33;;;;;;;;;;5088458;28;20450;-81
2023/04/25 03:49:55;;;;;;;3.15;2.33;;;;;;;;;;5074205;28;20376;-81
2023/04/25 03:52:21;;;;;;;2.55;2.10;;;;;;;;;;5073620;28;20398;-81
2023/04/25 03:54:47;;;;;;;5.13;2.40;;;;;;;;;;5079926;28;20448;-81
2023/04/25 03:57:13;;;;;;;3.00;2.20;;;;;;;;;;5082363;28;20469;-81
2023/04/25 03:59:39;;;;;;;3.35;2.17;;;;;;;;;;5074192;28;20427;-81
2023/04/25 04:02:05;;;;;;;4.85;2.40;;;;;;;;;;5073617;28;20462;-83
2023/04/25 04:04:31;;;;;;;3.22;2.38;;;;;;;;;;5087936;28;20410;-81
2023/04/25 04:06:57;;;;;;;3.00;1.98;;;;;;;;;;5081934;28;20405;-81
2023/04/25 04:09:23;;;;;;;3.30;2.33;;;;;;;;;;5079891;28;20405;-81
2023/04/25 04:11:49;;;;;;;2.42;2.22;;;;;;;;;;5083881;28;20861;-80
2023/04/25 04:14:16;;;;;;;3.67;2.78;;;;;;;;;;5088484;28;20384;-80
2023/04/25 04:16:42;;;;;;;2.53;2.33;;;;;;;;;;5085063;28;20383;-80
2023/04/25 04:19:08;;;;;;;3.63;2.30;;;;;;;;;;5083230;28;20382;-80
2023/04/25 04:21:34;;;;;;;3.92;2.35;;;;;;;;;;5085275;28;20439;-82
2023/04/25 04:24:00;;;;;;;2.95;2.20;;;;;;;;;;5083350;28;20391;-81
2023/04/25 04:26:26;;;;;;;3.47;2.17;;;;;;;;;;5091893;28;20469;-81
2023/04/25 04:28:54;;;;;;;2.63;2.08;;;;;;;;;;5079784;28;20383;-81
2023/04/25 04:31:23;;;;;;;2.83;2.30;;;;;;;;;;5087100;28;20385;-80
2023/04/25 04:33:50;;;;;;;2.95;2.25;;;;;;;;;;5081755;28;20376;-81
2023/04/25 04:36:19;;;;;;;3.17;2.40;;;;;;;;;;5086038;28;20868;-80
2023/04/25 04:38:45;;;;;;;2.38;2.17;;;;;;;;;;5074985;28;20391;-81
2023/04/25 04:41:11;;;;;;;2.38;2.10;;;;;;;;;;5073254;28;20897;-80
2023/04/25 04:43:39;;;;;;;3.03;2.40;;;;;;;;;;5055143;28;20441;-79
2023/04/25 04:46:05;;;;;;;3.00;2.28;;;;;;;;;;5073119;28;20457;-79
2023/04/25 04:48:35;;;;;;;3.13;2.20;;;;;;;;;;5078489;28;20522;-79
2023/04/25 04:51:01;;;;;;;4.28;2.58;;;;;;;;;;5075969;28;20368;-79
2023/04/25 04:53:27;;;;;;;2.78;2.30;;;;;;;;;;5077417;28;20446;-79
2023/04/25 04:55:53;;;;;;;2.43;2.23;;;;;;;;;;5068763;28;20433;-79
2023/04/25 04:58:19;;;;;;;2.60;2.10;;;;;;;;;;5061233;28;20376;-79
2023/04/25 05:00:46;;;;;;;2.55;2.30;;;;;;;;;;5072826;28;21026;-78
2023/04/25 05:03:12;;;;;;;2.88;2.42;;;;;;;;;;5077417;28;20397;-79
2023/04/25 05:05:39;;;;;;;2.85;2.47;;;;;;;;;;5081422;28;20920;-79
2023/04/25 05:08:06;;;;;;;3.55;2.40;;;;;;;;;;5086477;28;20404;-79
2023/04/25 05:10:32;;;;;;;3.10;2.38;;;;;;;;;;5072757;28;20384;-79
2023/04/25 05:12:58;;;;;;;4.03;2.63;;;;;;;;;;5072503;28;20771;-78
2023/04/25 05:15:24;;;;;;;4.20;2.65;;;;;;;;;;5072514;28;20380;-78
2023/04/25 05:17:50;;;;;;;3.45;2.50;;;;;;;;;;5072578;28;20383;-80
2023/04/25 05:20:18;;;;;;;4.43;2.80;;;;;;;;;;5072410;28;20388;-78
2023/04/25 05:22:44;;;;;;;3.38;3.15;;;;;;;;;;5072325;28;20380;-79
2023/04/25 05:25:10;;;;;;;3.38;2.92;;;;;;;;;;5086483;28;20783;-80
2023/04/25 05:27:36;;;;;;;3.10;2.80;;;;;;;;;;5072332;28;20382;-80
2023/04/25 05:30:02;;;;;;;3.75;3.28;;;;;;;;;;5072635;28;20383;-81
2023/04/25 05:32:28;;;;;;;4.20;3.55;;;;;;;;;;5075903;28;20375;-80
2023/04/25 05:34:54;;;;;;;3.45;3.15;;;;;;;;;;5071948;28;20380;-79
2023/04/25 05:37:20;;;;;;;3.17;2.95;;;;;;;;;;5078316;28;20375;-80
2023/04/25 05:39:46;;;;;;;3.15;2.95;;;;;;;;;;5080304;28;20384;-80
2023/04/25 05:42:12;;;;;;;3.50;3.20;;;;;;;;;;5076933;28;20379;-81
2023/04/25 05:44:38;;;;;;;8.23;6.78;;;;;;;;;;5072011;28;20382;-78
2023/04/25 05:47:04;;;;;;;5.90;5.25;;;;;;;;;;5071653;28;20500;-79
2023/04/25 05:49:30;;;;;;;6.25;5.53;;;;;;;;;;5071951;28;20379;-80
2023/04/25 05:51:56;;;;;;;3.78;3.47;;;;;;;;;;5071639;28;20380;-78
2023/04/25 05:54:22;;;;;;;5.15;4.72;;;;;;;;;;5073869;28;20926;-79
2023/04/25 05:56:48;;;;;;;3.60;3.30;;;;;;;;;;5083526;28;20466;-79
2023/04/25 05:59:14;;;;;;;3.60;3.30;;;;;;;;;;5053963;28;20933;-78
2023/04/25 06:01:40;;;;;;;4.38;3.25;;;;;;;;;;5071605;28;20437;-82
2023/04/25 06:04:06;;;;;;;3.45;3.15;;;;;;;;;;5084006;28;20453;-82
2023/04/25 06:06:32;;;;;;;4.22;3.22;;;;;;;;;;5059023;28;20400;-81
2023/04/25 06:08:58;;;;;;;3.33;3.03;;;;;;;;;;5071262;28;20432;-80
2023/04/25 06:11:24;;;;;;;3.28;2.97;;;;;;;;;;5074023;28;20458;-80
2023/04/25 06:13:50;;;;;;;3.00;2.70;;;;;;;;;;5083256;28;20467;-81
2023/04/25 06:16:16;;;;;;;3.75;2.70;;;;;;;;;;5071384;28;20399;-80
2023/04/25 06:18:42;;;;;;;2.72;2.40;;;;;;;;;;5071489;28;20467;-80
2023/04/25 06:21:08;;;;;;;4.03;2.75;;;;;;;;;;5071421;28;20753;-81
2023/04/25 06:23:34;;;;;;;3.13;2.70;;;;;;;;;;5058036;28;20473;-79
2023/04/25 06:26:00;;;;;;;3.63;2.88;;;;;;;;;;5067482;28;20458;-80
2023/04/25 06:28:26;;;;;;;2.80;2.60;;;;;;;;;;5071561;28;20893;-79
2023/04/25 06:30:52;;;;;;;3.43;2.70;;;;;;;;;;5071329;28;20541;-81
2023/04/25 06:33:19;;;;;;;3.03;2.83;;;;;;;;;;5071953;28;20383;-79
2023/04/25 06:35:45;;;;;;;3.35;3.05;;;;;;;;;;5084274;28;20924;-80
2023/04/25 06:38:11;;;;;;;3.75;3.30;;;;;;;;;;5084536;28;20508;-80
2023/04/25 06:40:37;;;;;;;3.83;3.33;;;;;;;;;;5077129;28;20386;-79
2023/04/25 06:43:04;;;;;;;4.35;3.47;;;;;;;;;;5070825;28;20380;-80
2023/04/25 06:45:30;;;;;;;4.15;3.53;;;;;;;;;;5070957;28;20407;-80
2023/04/25 06:47:56;;;;;;;4.55;3.30;;;;;;;;;;5071109;28;20861;-80
2023/04/25 06:50:22;;;;;;;4.38;3.75;;;;;;;;;;5070880;28;20379;-80
2023/04/25 06:52:48;;;;;;;3.80;3.42;;;;;;;;;;5070997;28;20808;-80
2023/04/25 06:55:14;;;;;;;4.13;3.70;;;;;;;;;;5080435;28;20377;-80
2023/04/25 06:57:40;;;;;;;5.00;4.50;;;;;;;;;;5072569;28;20426;-80
2023/04/25 07:00:09;;;;;;;5.37;4.63;;;;;;;;;;5070961;28;20411;-79
2023/04/25 07:02:35;;;;;;;6.82;4.60;;;;;;;;;;5084842;28;20406;-80
2023/04/25 07:05:03;;;;;;;4.97;4.38;;;;;;;;;;5070994;28;20425;-80
2023/04/25 07:07:30;;;;;;;6.00;4.53;;;;;;;;;;5070983;28;20368;-80
2023/04/25 07:09:56;;;;;;;5.10;4.10;;;;;;;;;;5070731;28;20376;-80
2023/04/25 07:12:22;;;;;;;4.28;3.10;;;;;;;;;;5070847;28;20801;-80
2023/04/25 07:14:48;;;;;;;4.50;2.88;;;;;;;;;;5070742;28;20459;-82
2023/04/25 07:17:15;;;;;;;3.43;2.87;;;;;;;;;;5070863;28;20372;-84
2023/04/25 07:19:41;;;;;;;5.72;3.30;;;;;;;;;;5070685;28;20733;-84
2023/04/25 07:22:07;;;;;;;3.38;3.05;;;;;;;;;;5070764;28;20386;-85
2023/04/25 07:24:33;;;;;;;4.40;3.65;;;;;;;;;;5052721;28;20388;-84
2023/04/25 07:27:00;;;;;;;5.17;4.67;;;;;;;;;;5070474;28;20892;-84
2023/04/25 07:29:26;;;;;;;4.18;3.78;;;;;;;;;;5070656;28;20859;-85
2023/04/25 07:31:52;;;;;;;5.18;4.38;;;;;;;;;;5070515;28;20407;-85
2023/04/25 07:34:19;;;;;;;3.85;3.45;;;;;;;;;;5070505;28;20760;-85
2023/04/25 07:36:45;;;;;;;3.50;3.20;;;;;;;;;;5071803;28;20383;-85
2023/04/25 07:39:11;;;;;;;2.95;2.67;;;;;;;;;;5083454;28;20384;-85
2023/04/25 07:41:37;;;;;;;2.88;2.35;;;;;;;;;;5052587;28;20892;-84
2023/04/25 07:44:03;;;;;;;3.40;2.45;;;;;;;;;;5070457;28;20384;-85
2023/04/25 07:46:29;;;;;;;6.20;5.17;;;;;;;;;;5052449;28;20976;-87
2023/04/25 07:48:55;;;;;;;6.22;5.63;;;;;;;;;;5069971;28;20384;-84
2023/04/25 07:51:22;;;;;;;6.10;5.60;;;;;;;;;;5070492;28;20386;-84
2023/04/25 07:53:48;;;;;;;4.68;4.28;;;;;;;;;;5070303;28;20475;-85
2023/04/25 07:56:14;;;;;;;3.13;2.40;;;;;;;;;;5087633;28;20478;-84
2023/04/25 07:58:40;;;;;;;2.92;2.17;;;;;;;;;;5074113;28;20462;-83
2023/04/25 08:01:06;;;;;;;2.75;2.50;;;;;;;;;;5114187;22;20525;-83
2023/04/25 08:03:32;;;;;;;2.90;2.63;;;;;;;;;;5093869;28;20392;-82
2023/04/25 08:05:58;;;;;;;3.35;3.05;;;;;;;;;;5089716;28;20451;-81
2023/04/25 08:08:24;;;;;;;3.60;3.30;;;;;;;;;;5092958;28;20432;-83
2023/04/25 08:10:50;;;;;;;3.77;3.33;;;;;;;;;;5093971;28;20410;-83
2023/04/25 08:13:16;;;;;;;2.70;2.50;;;;;;;;;;5094014;28;20390;-82
2023/04/25 08:15:42;;;;;;;4.00;2.70;;;;;;;;;;5082946;28;20394;-83
2023/04/25 08:18:08;;;;;;;3.00;2.58;;;;;;;;;;5090741;28;20425;-83
2023/04/25 08:20:34;;;;;;;3.60;2.78;;;;;;;;;;5088415;28;20393;-83
2023/04/25 08:23:00;;;;;;;3.00;2.75;;;;;;;;;;5093798;28;20382;-83
2023/04/25 08:25:26;;;;;;;3.50;3.20;;;;;;;;;;5093778;28;20500;-82
2023/04/25 08:27:52;;;;;;;3.90;3.60;;;;;;;;;;5091879;28;20412;-83
2023/04/25 08:30:18;;;;;;;4.47;4.07;;;;;;;;;;5093461;28;20371;-83
2023/04/25 08:32:45;;;;;;;4.07;3.67;;;;;;;;;;5093367;28;20374;-83
2023/04/25 08:35:11;;;;;;;4.32;3.92;;;;;;;;;;5090176;28;20414;-83
2023/04/25 08:37:37;;;;;;;3.27;3.07;;;;;;;;;;5093646;28;20393;-83
2023/04/25 08:40:06;;;;;;;4.28;3.88;;;;;;;;;;5093636;28;20370;-82
2023/04/25 08:42:36;;;;;;;4.00;3.70;;;;;;;;;;5093505;28;20378;-82
2023/04/25 08:45:03;;;;;;;3.53;3.28;;;;;;;;;;5093338;28;20373;-82
2023/04/25 08:47:30;;;;;;;4.60;4.10;;;;;;;;;;5093459;28;20469;-82
2023/04/25 08:49:56;;;;;;;4.45;4.15;;;;;;;;;;5093457;28;20378;-83
2023/04/25 08:52:24;;;;;;;4.25;3.95;;;;;;;;;;5093232;28;20378;-83
2023/04/25 08:54:51;;;;;;;4.00;3.70;;;;;;;;;;5093322;28;20417;-83
2023/04/25 08:57:17;;;;;;;4.75;4.32;;;;;;;;;;5093282;28;20743;-82
2023/04/25 08:59:45;;;;;;;4.85;4.40;;;;;;;;;;5089279;28;20461;-82
2023/04/25 09:02:15;;;;;;;4.40;4.07;;;;;;;;;;5087484;28;20451;-82
2023/04/25 09:04:42;;;;;;;3.50;3.30;;;;;;;;;;5093059;28;20378;-82
2023/04/25 09:07:08;;;;;;;3.55;3.25;;;;;;;;;;5092663;28;20405;-82
2023/04/25 09:09:34;;;;;;;3.33;3.05;;;;;;;;;;5092811;28;20717;-82
2023/04/25 09:12:01;;;;;;;3.60;3.28;;;;;;;;;;5092915;28;20766;-83
2023/04/25 09:14:27;;;;;;;3.55;3.25;;;;;;;;;;5092959;28;22032;-82
2023/04/25 09:16:56;;;;;;;2.90;2.70;;;;;;;;;;5092924;28;20731;-82
2023/04/25 09:19:23;;;;;;;3.03;2.80;;;;;;;;;;5092713;28;20374;-82
2023/04/25 09:21:54;;;;;;;2.63;2.43;;;;;;;;;;5091393;28;20984;-82
2023/04/25 09:24:44;;;;;;;3.45;3.03;;;;;;;;;;5092593;28;20457;-82
2023/04/25 09:27:11;;;;;;;2.60;2.40;;;;;;;;;;5092639;28;20732;-82
2023/04/25 09:29:38;;;;;;;2.20;2.10;;;;;;;;;;5092525;28;20386;-82
2023/04/25 09:32:17;;;;;;;2.30;2.10;;;;;;;;;;5092432;28;20469;-82
2023/04/25 09:34:44;;;;;;;1.83;1.65;;;;;;;;;;5076798;28;20885;-82
2023/04/25 09:37:11;;;;;;;2.28;2.08;;;;;;;;;;5092496;28;20378;-82
2023/04/25 09:39:38;;;;;;;1.98;1.80;;;;;;;;;;5092819;28;20743;-82
2023/04/25 09:42:05;;;;;;;2.20;2.00;;;;;;;;;;5092305;28;20370;-82
2023/04/25 09:44:31;;;;;;;2.30;1.73;;;;;;;;;;5092318;28;20416;-82
2023/04/25 09:46:58;;;;;;;1.85;1.60;;;;;;;;;;5079108;28;20931;-82
2023/04/25 09:49:25;;;;;;;2.03;1.83;;;;;;;;;;5082709;28;20870;-82
2023/04/25 09:51:55;;;;;;;1.30;1.20;;;;;;;;;;5092038;28;20378;-83
2023/04/25 09:54:21;;;;;;;3.00;2.70;;;;;;;;;;5092215;28;20400;-83
2023/04/25 09:56:48;;;;;;;1.60;1.50;;;;;;;;;;5090666;28;20431;-83
2023/04/25 09:59:14;;;;;;;1.60;1.50;;;;;;;;;;5092442;28;20462;-83
2023/04/25 10:01:41;;;;;;;3.13;2.92;;;;;;;;;;5091862;28;20406;-84
2023/04/25 10:04:10;;;;;;;1.55;1.40;;;;;;;;;;5092003;28;20460;-82
2023/04/25 10:06:37;;;;;;;3.05;2.75;;;;;;;;;;5078867;28;20737;-83
2023/04/25 10:09:04;;;;;;;0.70;0.68;;;;;;;;;;5089383;28;20386;-83
2023/04/25 10:11:31;;;;;;;0.60;0.40;;;;;;;;;;5091898;28;20389;-83
2023/04/25 10:13:57;;;;;;;0.57;0.40;;;;;;;;;;5090207;28;20840;-82
2023/04/25 10:16:24;;;;;;;0.30;0.30;;;;;;;;;;5090581;28;20409;-83
2023/04/25 10:18:50;;;;;;;0.50;0.50;;;;;;;;;;5089899;28;20378;-83
2023/04/25 10:21:16;;;;;;;0.80;0.47;;;;;;;;;;5095807;28;20410;-82
2023/04/25 10:23:42;;;;;;;0.50;0.40;;;;;;;;;;5089127;28;20386;-85
2023/04/25 10:26:12;;;;;;;0.70;0.50;;;;;;;;;;5090404;28;20426;-83
2023/04/25 10:29:07;;;;;;;1.10;0.80;;;;;;;;;;5084816;28;20474;-84
2023/04/25 10:31:34;;;;;;;0.52;0.50;;;;;;;;;;5078314;28;20386;-83
2023/04/25 10:34:01;;;;;;;2.25;0.65;;;;;;;;;;5091473;28;20461;-84
2023/04/25 10:36:31;;;;;;;0.35;0.30;;;;;;;;;;5084999;28;20386;-82
2023/04/25 10:39:06;;;;;;;0.50;0.40;;;;;;;;;;5090681;28;20441;-83
2023/04/25 10:41:38;;;;;;;0.40;0.30;;;;;;;;;;5090941;28;20466;-83
2023/04/25 10:44:04;;;;;;;0.60;0.30;;;;;;;;;;5090831;28;20392;-83
2023/04/25 10:46:30;;;;;;;0.55;0.40;;;;;;;;;;5091499;28;20805;-84
2023/04/25 10:48:58;;;;;;;0.63;0.40;;;;;;;;;;5090191;28;20382;-84
2023/04/25 10:51:32;;;;;;;0.50;0.30;;;;;;;;;;5091289;28;20381;-83
2023/04/25 10:54:05;;;;;;;0.30;0.30;;;;;;;;;;5090350;28;20435;-84
2023/04/25 10:56:31;;;;;;;0.30;0.30;;;;;;;;;;5088214;28;20385;-84
2023/04/25 10:59:05;;;;;;;0.30;0.30;;;;;;;;;;5091274;28;20385;-84
2023/04/25 11:01:36;;;;;;;0.20;0.20;;;;;;;;;;5089453;28;20783;-84
2023/04/25 11:04:02;;;;;;;0.75;0.20;;;;;;;;;;5091205;28;20397;-84
2023/04/25 11:06:47;;;;;;;0.52;0.30;;;;;;;;;;5091144;28;20398;-83
2023/04/25 11:09:13;;;;;;;0.15;0.15;;;;;;;;;;5089655;28;20374;-83
2023/04/25 11:11:40;;;;;;;0.47;0.30;;;;;;;;;;5091137;28;20421;-83
2023/04/25 11:14:06;;;;;;;0.60;0.20;;;;;;;;;;5091186;28;20386;-83
2023/04/25 11:16:32;;;;;;;0.40;0.40;;;;;;;;;;5090904;28;20388;-83
2023/04/25 11:18:59;;;;;;;0.40;0.20;;;;;;;;;;5091148;28;20381;-83
2023/04/25 11:21:28;;;;;;;0.70;0.30;;;;;;;;;;5090434;28;20381;-84
2023/04/25 11:23:55;;;;;;;0.20;0.20;;;;;;;;;;5089590;28;20386;-85
2023/04/25 11:26:21;;;;;;;0.20;0.20;;;;;;;;;;5089514;28;20800;-82
2023/04/25 11:28:47;;;;;;;0.60;0.30;;;;;;;;;;5090734;28;20450;-84
2023/04/25 11:31:13;;;;;;;0.20;0.20;;;;;;;;;;5093097;28;20464;-84
2023/04/25 11:33:40;;;;;;;0.20;0.20;;;;;;;;;;5093026;28;20385;-83
2023/04/25 11:36:07;;;;;;;0.28;0.28;;;;;;;;;;5094655;28;20397;-84
2023/04/25 11:38:33;;;;;;;0.20;0.20;;;;;;;;;;5093776;28;20902;-84
2023/04/25 11:40:59;;;;;;;0.20;0.20;;;;;;;;;;5092088;28;20389;-83
2023/04/25 11:43:26;;;;;;;1.20;0.20;;;;;;;;;;5079876;28;20378;-84
2023/04/25 11:45:52;;;;;;;0.28;0.28;;;;;;;;;;5094261;28;20805;-83
2023/04/25 11:48:21;;;;;;;0.30;0.30;;;;;;;;;;5094562;28;20473;-83
2023/04/25 11:50:47;;;;;;;0.22;0.22;;;;;;;;;;5091994;28;20855;-84
2023/04/25 11:53:13;;;;;;;0.30;0.30;;;;;;;;;;5094455;28;20374;-84
2023/04/25 11:55:39;;;;;;;0.60;0.45;;;;;;;;;;5094441;28;20746;-84
2023/04/25 11:58:06;;;;;;;0.38;0.32;;;;;;;;;;5093031;28;20390;-85
2023/04/25 12:00:32;;;;;;;0.40;0.30;;;;;;;;;;5093986;28;20458;-83
2023/04/25 12:02:59;;;;;;;0.90;0.30;;;;;;;;;;5093557;28;20397;-84
2023/04/25 12:05:26;;;;;;;0.68;0.40;;;;;;;;;;5092872;28;20374;-84
2023/04/25 12:07:52;;;;;;;1.00;0.40;;;;;;;;;;5091084;28;20464;-83
2023/04/25 12:10:19;;;;;;;0.50;0.50;;;;;;;;;;5083757;28;20461;-84
2023/04/25 12:12:45;;;;;;;1.60;0.50;;;;;;;;;;5091674;28;20407;-84
2023/04/25 12:15:12;;;;;;;0.63;0.63;;;;;;;;;;5083738;28;20429;-83
2023/04/25 12:17:39;;;;;;;0.53;0.50;;;;;;;;;;5088715;28;20382;-84
2023/04/25 12:20:09;;;;;;;0.70;0.40;;;;;;;;;;5092605;28;20401;-84
2023/04/25 12:22:36;;;;;;;1.38;0.60;;;;;;;;;;5090922;28;20470;-84
2023/04/25 12:25:04;;;;;;;0.40;0.30;;;;;;;;;;5092970;28;20385;-84
2023/04/25 12:27:31;;;;;;;0.90;0.40;;;;;;;;;;5093870;28;20410;-83
2023/04/25 12:29:57;;;;;;;0.40;0.30;;;;;;;;;;5093719;28;20384;-83
2023/04/25 12:32:23;;;;;;;1.85;0.75;;;;;;;;;;5082544;28;20379;-83
2023/04/25 12:34:49;;;;;;;0.65;0.50;;;;;;;;;;5088969;28;20384;-83
2023/04/25 12:37:15;;;;;;;0.60;0.50;;;;;;;;;;5093741;28;20404;-83
2023/04/25 12:39:42;;;;;;;1.02;0.50;;;;;;;;;;5093531;28;20469;-84
2023/04/25 12:42:11;;;;;;;1.42;0.70;;;;;;;;;;5092973;28;20382;-84
2023/04/25 12:44:37;;;;;;;1.60;0.50;;;;;;;;;;5092851;28;20416;-83
2023/04/25 12:47:03;;;;;;;0.80;0.50;;;;;;;;;;5092857;28;20405;-83
2023/04/25 12:49:29;;;;;;;0.75;0.60;;;;;;;;;;5093235;28;20469;-84
2023/04/25 12:51:55;;;;;;;1.20;0.70;;;;;;;;;;5093286;28;20453;-84
2023/04/25 12:54:21;;;;;;;0.70;0.50;;;;;;;;;;5091736;28;20480;-83
2023/04/25 12:56:47;;;;;;;1.90;0.60;;;;;;;;;;5092767;28;20370;-84
2023/04/25 12:59:13;;;;;;;0.47;0.45;;;;;;;;;;5093245;28;20432;-84
2023/04/25 13:01:39;;;;;;;0.82;0.52;;;;;;;;;;5092868;28;20422;-84
2023/04/25 13:04:06;;;;;;;0.60;0.50;;;;;;;;;;5093074;28;20370;-84
2023/04/25 13:06:32;;;;;;;0.70;0.52;;;;;;;;;;5092914;28;20459;-84
2023/04/25 13:08:58;;;;;;;0.60;0.50;;;;;;;;;;5092152;28;20470;-84
2023/04/25 13:11:24;;;;;;;1.20;0.80;;;;;;;;;;5091390;28;20535;-84
2023/04/25 13:13:50;;;;;;;1.00;0.67;;;;;;;;;;5091471;28;20509;-84
2023/04/25 13:16:16;;;;;;;0.70;0.52;;;;;;;;;;5092532;28;20462;-84
2023/04/25 13:18:42;;;;;;;0.98;0.55;;;;;;;;;;5092050;28;20458;-84
2023/04/25 13:21:11;;;;;;;1.08;0.50;;;;;;;;;;5092406;28;20374;-83
2023/04/25 13:23:37;;;;;;;2.03;0.77;;;;;;;;;;5092656;28;20396;-84
2023/04/25 13:26:03;;;;;;;0.70;0.50;;;;;;;;;;5090959;28;20401;-83
2023/04/25 13:28:29;;;;;;;1.50;0.70;;;;;;;;;;5091003;28;20386;-84
2023/04/25 13:30:55;;;;;;;1.20;0.70;;;;;;;;;;5091423;28;20423;-84
2023/04/25 13:33:21;;;;;;;1.48;0.55;;;;;;;;;;5090949;28;20388;-84
2023/04/25 13:35:56;;;;;;;0.82;0.70;;;;;;;;;;5092393;28;20382;-83
2023/04/25 13:38:22;;;;;;;1.40;0.60;;;;;;;;;;5092318;28;20393;-84
2023/04/25 13:40:49;;;;;;;0.60;0.50;;;;;;;;;;5089994;28;20449;-83
2023/04/25 13:43:15;;;;;;;0.73;0.55;;;;;;;;;;5091760;28;20389;-85
2023/04/25 13:45:41;;;;;;;0.60;0.50;;;;;;;;;;5092251;28;20416;-84
2023/04/25 13:48:07;;;;;;;2.53;0.60;;;;;;;;;;5091077;28;20409;-84
2023/04/25 13:50:33;;;;;;;0.75;0.60;;;;;;;;;;5091857;28;20451;-85
2023/04/25 13:52:59;;;;;;;0.95;0.70;;;;;;;;;;5084310;28;20830;-84
2023/04/25 13:55:25;;;;;;;2.40;0.70;;;;;;;;;;5090588;28;20736;-84
2023/04/25 13:57:51;;;;;;;1.55;0.63;;;;;;;;;;5090725;28;20766;-85
2023/04/25 14:00:17;;;;;;;1.73;1.37;;;;;;;;;;5091796;28;20370;-84
2023/04/25 14:02:43;;;;;;;2.63;1.80;;;;;;;;;;5090132;28;20813;-84
2023/04/25 14:05:09;;;;;;;3.97;1.30;;;;;;;;;;5091018;28;20386;-85
2023/04/25 14:07:36;;;;;;;1.20;0.90;;;;;;;;;;5090522;28;20451;-84
2023/04/25 14:10:02;;;;;;;0.93;0.75;;;;;;;;;;5090400;28;20586;-84
2023/04/25 14:12:28;;;;;;;1.70;0.70;;;;;;;;;;5088879;28;20848;-85
2023/04/25 14:14:54;;;;;;;1.65;0.70;;;;;;;;;;5089828;28;20464;-84
2023/04/25 14:17:20;;;;;;;1.80;0.90;;;;;;;;;;5090423;28;20413;-84
2023/04/25 14:19:47;;;;;;;1.77;0.60;;;;;;;;;;5088961;28;20946;-84
2023/04/25 14:22:14;;;;;;;0.73;0.60;;;;;;;;;;5091634;28;20785;-83
2023/04/25 14:24:40;;;;;;;0.60;0.60;;;;;;;;;;5090476;28;20409;-83
2023/04/25 14:27:06;;;;;;;1.08;0.70;;;;;;;;;;5089769;28;20406;-82
2023/04/25 14:29:32;;;;;;;1.02;0.68;;;;;;;;;;5088503;28;20397;-82
2023/04/25 14:31:58;;;;;;;0.93;0.50;;;;;;;;;;5089646;28;20382;-84
2023/04/25 14:34:25;;;;;;;0.65;0.65;;;;;;;;;;5091634;28;20457;-85
2023/04/25 14:36:52;;;;;;;0.73;0.60;;;;;;;;;;5091461;28;20392;-83
2023/04/25 14:39:18;;;;;;;0.80;0.50;;;;;;;;;;5086617;28;20378;-83